sensor_id;sensor_type;location;lat;lon;timestamp;pressure;altitude;pressure_sealevel;temperature;humidity
13974;BME280;7060;43.770;4.008;2023-05-07T00:02:16;101079.56;;;14.06;69.91
13974;BME280;7060;43.770;4.008;2023-05-07T00:04:45;101078.41;;;14.09;70.37
13974;BME280;7060;43.770;4.008;2023-05-07T00:07:13;101092.22;;;14.14;70.28
13974;BME280;7060;43.770;4.008;2023-05-07T00:09:42;101092.06;;;14.15;70.57
13974;BME280;7060;43.770;4.008;2023-05-07T00:12:11;101088.84;;;14.12;70.68
13974;BME280;7060;43.770;4.008;2023-05-07T00:14:41;101089.69;;;14.12;71.05
13974;BME280;7060;43.770;4.008;2023-05-07T00:17:09;101093.22;;;14.13;71.23
13974;BME280;7060;43.770;4.008;2023-05-07T00:19:38;101075.78;;;14.17;71.31
13974;BME280;7060;43.770;4.008;2023-05-07T00:22:07;101070.94;;;14.20;71.60
13974;BME280;7060;43.770;4.008;2023-05-07T00:24:35;101063.06;;;14.27;71.73
13974;BME280;7060;43.770;4.008;2023-05-07T00:27:03;101070.97;;;14.37;72.34
13974;BME280;7060;43.770;4.008;2023-05-07T00:29:32;101065.97;;;14.42;72.12
13974;BME280;7060;43.770;4.008;2023-05-07T00:32:02;101062.78;;;14.46;72.28
13974;BME280;7060;43.770;4.008;2023-05-07T00:34:31;101065.38;;;14.56;72.50
13974;BME280;7060;43.770;4.008;2023-05-07T00:37:01;101060.16;;;14.63;72.61
13974;BME280;7060;43.770;4.008;2023-05-07T00:39:33;101047.38;;;14.65;73.05
13974;BME280;7060;43.770;4.008;2023-05-07T00:42:02;101045.22;;;14.68;73.03
13974;BME280;7060;43.770;4.008;2023-05-07T00:44:31;101045.56;;;14.73;72.84
13974;BME280;7060;43.770;4.008;2023-05-07T00:47:03;101048.94;;;14.75;72.45
13974;BME280;7060;43.770;4.008;2023-05-07T00:49:38;101055.69;;;14.79;72.85
13974;BME280;7060;43.770;4.008;2023-05-07T00:52:07;101048.13;;;14.83;73.50
13974;BME280;7060;43.770;4.008;2023-05-07T00:54:36;101047.44;;;14.89;73.81
13974;BME280;7060;43.770;4.008;2023-05-07T00:57:04;101053.66;;;14.89;74.06
13974;BME280;7060;43.770;4.008;2023-05-07T00:59:33;101050.63;;;14.93;73.84
13974;BME280;7060;43.770;4.008;2023-05-07T01:02:03;101065.16;;;15.08;73.94
13974;BME280;7060;43.770;4.008;2023-05-07T01:04:32;101084.66;;;15.18;73.90
13974;BME280;7060;43.770;4.008;2023-05-07T01:07:01;101093.75;;;15.25;73.57
13974;BME280;7060;43.770;4.008;2023-05-07T01:09:30;101087.03;;;15.29;73.58
13974;BME280;7060;43.770;4.008;2023-05-07T01:11:59;101090.06;;;15.26;73.64
13974;BME280;7060;43.770;4.008;2023-05-07T01:14:28;101103.84;;;15.23;73.53
13974;BME280;7060;43.770;4.008;2023-05-07T01:16:58;101110.75;;;15.25;73.48
13974;BME280;7060;43.770;4.008;2023-05-07T01:19:28;101102.19;;;15.30;73.48
13974;BME280;7060;43.770;4.008;2023-05-07T01:22:08;101105.88;;;15.29;72.98
13974;BME280;7060;43.770;4.008;2023-05-07T01:24:50;101115.47;;;15.23;73.33
13974;BME280;7060;43.770;4.008;2023-05-07T01:27:19;101109.91;;;15.25;73.16
13974;BME280;7060;43.770;4.008;2023-05-07T01:29:50;101110.44;;;15.29;73.15
13974;BME280;7060;43.770;4.008;2023-05-07T01:32:23;101105.22;;;15.27;72.66
13974;BME280;7060;43.770;4.008;2023-05-07T01:34:52;101081.47;;;15.06;73.18
13974;BME280;7060;43.770;4.008;2023-05-07T01:37:23;101105.88;;;15.21;73.19
13974;BME280;7060;43.770;4.008;2023-05-07T01:39:54;101097.44;;;15.16;73.45
13974;BME280;7060;43.770;4.008;2023-05-07T01:42:23;101098.44;;;15.15;73.60
13974;BME280;7060;43.770;4.008;2023-05-07T01:44:52;101099.13;;;15.17;73.45
13974;BME280;7060;43.770;4.008;2023-05-07T01:47:21;101105.53;;;15.16;73.54
13974;BME280;7060;43.770;4.008;2023-05-07T01:49:51;101099.66;;;15.12;73.67
13974;BME280;7060;43.770;4.008;2023-05-07T01:52:19;101085.66;;;15.17;73.35
13974;BME280;7060;43.770;4.008;2023-05-07T01:54:48;101091.41;;;15.22;73.10
13974;BME280;7060;43.770;4.008;2023-05-07T01:57:17;101079.44;;;15.24;72.72
13974;BME280;7060;43.770;4.008;2023-05-07T01:59:46;101074.56;;;15.20;72.66
13974;BME280;7060;43.770;4.008;2023-05-07T02:02:15;101074.22;;;15.15;72.91
13974;BME280;7060;43.770;4.008;2023-05-07T02:04:46;101075.59;;;15.11;72.74
13974;BME280;7060;43.770;4.008;2023-05-07T02:07:15;101082.16;;;15.08;72.84
13974;BME280;7060;43.770;4.008;2023-05-07T02:09:44;101089.38;;;15.08;72.90
13974;BME280;7060;43.770;4.008;2023-05-07T02:12:12;101089.03;;;15.03;72.96
13974;BME280;7060;43.770;4.008;2023-05-07T02:14:42;101088.69;;;14.98;73.10
13974;BME280;7060;43.770;4.008;2023-05-07T02:17:11;101089.69;;;14.97;73.31
13974;BME280;7060;43.770;4.008;2023-05-07T02:19:39;101100.66;;;15.03;73.27
13974;BME280;7060;43.770;4.008;2023-05-07T02:22:09;101107.22;;;15.09;73.01
13974;BME280;7060;43.770;4.008;2023-05-07T02:24:38;101110.56;;;15.03;73.52
13974;BME280;7060;43.770;4.008;2023-05-07T02:27:06;101114.63;;;15.07;73.49
13974;BME280;7060;43.770;4.008;2023-05-07T02:29:35;101108.06;;;15.09;73.11
13974;BME280;7060;43.770;4.008;2023-05-07T02:32:05;101099.81;;;15.03;72.96
13974;BME280;7060;43.770;4.008;2023-05-07T02:34:34;101102.16;;;15.06;73.18
13974;BME280;7060;43.770;4.008;2023-05-07T02:37:03;101098.97;;;15.02;73.28
13974;BME280;7060;43.770;4.008;2023-05-07T02:39:31;101093.06;;;14.99;73.37
13974;BME280;7060;43.770;4.008;2023-05-07T02:42:00;101086.31;;;14.95;73.59
13974;BME280;7060;43.770;4.008;2023-05-07T02:44:29;101096.72;;;14.89;73.73
13974;BME280;7060;43.770;4.008;2023-05-07T02:46:59;101092.03;;;14.91;73.76
13974;BME280;7060;43.770;4.008;2023-05-07T02:49:30;101097.25;;;14.93;73.84
13974;BME280;7060;43.770;4.008;2023-05-07T02:51:58;101100.09;;;14.91;73.92
13974;BME280;7060;43.770;4.008;2023-05-07T02:54:27;101107.00;;;14.94;74.12
13974;BME280;7060;43.770;4.008;2023-05-07T02:56:56;101102.81;;;15.00;73.67
13974;BME280;7060;43.770;4.008;2023-05-07T02:59:24;101094.41;;;15.03;73.72
13974;BME280;7060;43.770;4.008;2023-05-07T03:01:53;101097.94;;;15.03;73.36
13974;BME280;7060;43.770;4.008;2023-05-07T03:04:21;101090.56;;;15.05;73.59
13974;BME280;7060;43.770;4.008;2023-05-07T03:06:51;101091.22;;;15.07;73.42
13974;BME280;7060;43.770;4.008;2023-05-07T03:09:20;101085.00;;;15.07;73.34
13974;BME280;7060;43.770;4.008;2023-05-07T03:11:49;101083.31;;;15.06;73.08
13974;BME280;7060;43.770;4.008;2023-05-07T03:14:17;101092.56;;;15.03;73.43
13974;BME280;7060;43.770;4.008;2023-05-07T03:16:46;101096.94;;;15.04;73.17
13974;BME280;7060;43.770;4.008;2023-05-07T03:19:14;101103.81;;;14.99;73.20
13974;BME280;7060;43.770;4.008;2023-05-07T03:21:43;101098.78;;;14.96;73.22
13974;BME280;7060;43.770;4.008;2023-05-07T03:24:12;101094.72;;;14.91;73.15
13974;BME280;7060;43.770;4.008;2023-05-07T03:26:41;101103.97;;;14.89;73.41
13974;BME280;7060;43.770;4.008;2023-05-07T03:29:09;101100.59;;;14.87;73.54
13974;BME280;7060;43.770;4.008;2023-05-07T03:31:38;101097.25;;;14.85;73.51
13974;BME280;7060;43.770;4.008;2023-05-07T03:34:06;101100.94;;;14.84;73.66
13974;BME280;7060;43.770;4.008;2023-05-07T03:36:35;101098.75;;;14.79;73.85
13974;BME280;7060;43.770;4.008;2023-05-07T03:39:07;101093.00;;;14.74;74.38
13974;BME280;7060;43.770;4.008;2023-05-07T03:41:40;101091.69;;;14.78;74.26
13974;BME280;7060;43.770;4.008;2023-05-07T03:44:10;101091.00;;;14.76;74.21
13974;BME280;7060;43.770;4.008;2023-05-07T03:46:39;101096.38;;;14.76;74.33
13974;BME280;7060;43.770;4.008;2023-05-07T03:49:11;101095.06;;;14.80;74.62
13974;BME280;7060;43.770;4.008;2023-05-07T03:51:39;101091.03;;;14.84;74.41
13974;BME280;7060;43.770;4.008;2023-05-07T03:54:08;101085.97;;;14.81;74.75
13974;BME280;7060;43.770;4.008;2023-05-07T03:56:43;101075.34;;;14.72;75.33
13974;BME280;7060;43.770;4.008;2023-05-07T03:59:12;101082.91;;;14.76;75.32
13974;BME280;7060;43.770;4.008;2023-05-07T04:01:45;101087.50;;;14.84;75.69
13974;BME280;7060;43.770;4.008;2023-05-07T04:04:23;101082.44;;;14.89;75.56
13974;BME280;7060;43.770;4.008;2023-05-07T04:06:52;101075.19;;;14.89;75.42
13974;BME280;7060;43.770;4.008;2023-05-07T04:09:21;101076.03;;;14.90;75.38
13974;BME280;7060;43.770;4.008;2023-05-07T04:11:51;101082.78;;;14.94;75.34
13974;BME280;7060;43.770;4.008;2023-05-07T04:14:20;101098.44;;;14.99;75.47
13974;BME280;7060;43.770;4.008;2023-05-07T04:16:48;101091.03;;;15.01;75.42
13974;BME280;7060;43.770;4.008;2023-05-07T04:19:16;101097.78;;;15.05;75.15
13974;BME280;7060;43.770;4.008;2023-05-07T04:21:48;101094.41;;;15.03;75.00
13974;BME280;7060;43.770;4.008;2023-05-07T04:24:17;101091.53;;;14.96;75.05
13974;BME280;7060;43.770;4.008;2023-05-07T04:26:45;101098.25;;;14.92;75.17
13974;BME280;7060;43.770;4.008;2023-05-07T04:29:16;101107.66;;;14.88;75.47
13974;BME280;7060;43.770;4.008;2023-05-07T04:31:44;101113.22;;;14.86;75.27
13974;BME280;7060;43.770;4.008;2023-05-07T04:34:13;101106.34;;;14.84;75.29
13974;BME280;7060;43.770;4.008;2023-05-07T04:36:42;101099.75;;;14.78;75.43
13974;BME280;7060;43.770;4.008;2023-05-07T04:39:12;101084.94;;;14.74;75.60
13974;BME280;7060;43.770;4.008;2023-05-07T04:41:44;101082.25;;;14.74;75.95
13974;BME280;7060;43.770;4.008;2023-05-07T04:44:13;101087.81;;;14.81;75.97
13974;BME280;7060;43.770;4.008;2023-05-07T04:46:44;101082.09;;;14.84;75.70
13974;BME280;7060;43.770;4.008;2023-05-07T04:49:12;101085.97;;;14.81;75.69
13974;BME280;7060;43.770;4.008;2023-05-07T04:51:41;101087.81;;;14.81;75.66
13974;BME280;7060;43.770;4.008;2023-05-07T04:54:12;101106.34;;;14.84;75.76
13974;BME280;7060;43.770;4.008;2023-05-07T04:56:40;101101.44;;;14.87;75.93
13974;BME280;7060;43.770;4.008;2023-05-07T04:59:09;101109.19;;;14.90;75.39
13974;BME280;7060;43.770;4.008;2023-05-07T05:01:38;101106.81;;;14.87;75.13
13974;BME280;7060;43.770;4.008;2023-05-07T05:04:09;101101.97;;;14.83;75.60
13974;BME280;7060;43.770;4.008;2023-05-07T05:06:37;101110.53;;;14.86;75.46
13974;BME280;7060;43.770;4.008;2023-05-07T05:09:07;101106.31;;;14.92;75.42
13974;BME280;7060;43.770;4.008;2023-05-07T05:11:36;101108.38;;;14.98;75.22
13974;BME280;7060;43.770;4.008;2023-05-07T05:14:04;101112.09;;;15.05;74.92
13974;BME280;7060;43.770;4.008;2023-05-07T05:16:33;101103.69;;;15.08;74.67
13974;BME280;7060;43.770;4.008;2023-05-07T05:19:01;101095.41;;;15.02;74.80
13974;BME280;7060;43.770;4.008;2023-05-07T05:21:35;101098.44;;;14.99;74.97
13974;BME280;7060;43.770;4.008;2023-05-07T05:24:07;101102.81;;;15.00;75.34
13974;BME280;7060;43.770;4.008;2023-05-07T05:26:36;101102.84;;;15.08;75.02
13974;BME280;7060;43.770;4.008;2023-05-07T05:29:05;101102.16;;;15.14;74.96
13974;BME280;7060;43.770;4.008;2023-05-07T05:31:33;101100.50;;;15.13;74.62
13974;BME280;7060;43.770;4.008;2023-05-07T05:34:03;101100.00;;;15.09;75.09
13974;BME280;7060;43.770;4.008;2023-05-07T05:36:32;101105.53;;;15.08;75.26
13974;BME280;7060;43.770;4.008;2023-05-07T05:39:02;101105.38;;;15.09;75.43
13974;BME280;7060;43.770;4.008;2023-05-07T05:41:31;101112.94;;;15.14;75.27
13974;BME280;7060;43.770;4.008;2023-05-07T05:44:00;101126.06;;;15.17;75.27
13974;BME280;7060;43.770;4.008;2023-05-07T05:46:29;101133.47;;;15.23;75.47
13974;BME280;7060;43.770;4.008;2023-05-07T05:49:00;101138.38;;;15.28;75.25
13974;BME280;7060;43.770;4.008;2023-05-07T05:51:30;101131.13;;;15.28;75.18
13974;BME280;7060;43.770;4.008;2023-05-07T05:53:59;101131.81;;;15.30;75.25
13974;BME280;7060;43.770;4.008;2023-05-07T05:56:29;101132.34;;;15.34;75.22
13974;BME280;7060;43.770;4.008;2023-05-07T05:58:58;101131.16;;;15.36;75.25
13974;BME280;7060;43.770;4.008;2023-05-07T06:01:27;101116.84;;;15.36;75.12
13974;BME280;7060;43.770;4.008;2023-05-07T06:03:58;101114.31;;;15.34;75.28
13974;BME280;7060;43.770;4.008;2023-05-07T06:06:27;101112.47;;;15.35;75.60
13974;BME280;7060;43.770;4.008;2023-05-07T06:08:57;101115.13;;;15.43;75.46
13974;BME280;7060;43.770;4.008;2023-05-07T06:11:34;101124.25;;;15.50;75.38
13974;BME280;7060;43.770;4.008;2023-05-07T06:14:03;101121.88;;;15.55;75.26
13974;BME280;7060;43.770;4.008;2023-05-07T06:16:32;101121.91;;;15.63;75.20
13974;BME280;7060;43.770;4.008;2023-05-07T06:19:01;101125.59;;;15.70;74.97
13974;BME280;7060;43.770;4.008;2023-05-07T06:21:29;101110.94;;;15.73;75.36
13974;BME280;7060;43.770;4.008;2023-05-07T06:23:59;101104.88;;;15.79;75.39
13974;BME280;7060;43.770;4.008;2023-05-07T06:26:27;101102.88;;;15.81;75.44
13974;BME280;7060;43.770;4.008;2023-05-07T06:28:57;101114.31;;;15.83;75.52
13974;BME280;7060;43.770;4.008;2023-05-07T06:31:29;101124.44;;;15.89;75.18
13974;BME280;7060;43.770;4.008;2023-05-07T06:34:02;101129.31;;;15.94;75.36
13974;BME280;7060;43.770;4.008;2023-05-07T06:36:35;101113.44;;;15.99;75.26
13974;BME280;7060;43.770;4.008;2023-05-07T06:39:24;101111.91;;;15.96;75.51
13974;BME280;7060;43.770;4.008;2023-05-07T06:41:52;101130.47;;;15.99;75.70
13974;BME280;7060;43.770;4.008;2023-05-07T06:44:27;101126.41;;;16.03;75.57
13974;BME280;7060;43.770;4.008;2023-05-07T06:47:05;101122.34;;;16.07;75.74
13974;BME280;7060;43.770;4.008;2023-05-07T06:49:37;101131.78;;;16.11;75.83
13974;BME280;7060;43.770;4.008;2023-05-07T06:52:05;101141.22;;;16.15;75.83
13974;BME280;7060;43.770;4.008;2023-05-07T06:54:34;101147.97;;;16.19;75.93
13974;BME280;7060;43.770;4.008;2023-05-07T06:57:02;101131.44;;;16.22;76.39
13974;BME280;7060;43.770;4.008;2023-05-07T06:59:33;101144.22;;;16.29;76.01
13974;BME280;7060;43.770;4.008;2023-05-07T07:02:01;101143.88;;;16.32;76.13
13974;BME280;7060;43.770;4.008;2023-05-07T07:04:30;101151.28;;;16.38;76.10
13974;BME280;7060;43.770;4.008;2023-05-07T07:07:03;101154.31;;;16.43;75.60
13974;BME280;7060;43.770;4.008;2023-05-07T07:09:32;101162.34;;;16.51;75.10
13974;BME280;7060;43.770;4.008;2023-05-07T07:12:03;101170.44;;;16.59;74.68
13974;BME280;7060;43.770;4.008;2023-05-07T07:14:34;101168.06;;;16.64;74.47
13974;BME280;7060;43.770;4.008;2023-05-07T07:17:03;101156.59;;;16.70;74.62
13974;BME280;7060;43.770;4.008;2023-05-07T07:19:32;101164.00;;;16.76;74.68
13974;BME280;7060;43.770;4.008;2023-05-07T07:22:03;101163.94;;;16.84;74.22
13974;BME280;7060;43.770;4.008;2023-05-07T07:24:32;101164.56;;;16.95;73.60
13974;BME280;7060;43.770;4.008;2023-05-07T07:27:04;101169.94;;;17.03;72.80
13974;BME280;7060;43.770;4.008;2023-05-07T07:29:35;101156.19;;;17.12;72.28
13974;BME280;7060;43.770;4.008;2023-05-07T07:32:04;101153.09;;;17.23;72.01
13974;BME280;7060;43.770;4.008;2023-05-07T07:34:33;101160.31;;;17.54;72.54
13974;BME280;7060;43.770;4.008;2023-05-07T07:37:02;101158.09;;;17.80;71.67
13974;BME280;7060;43.770;4.008;2023-05-07T07:39:35;101160.63;;;17.97;70.74
13974;BME280;7060;43.770;4.008;2023-05-07T07:42:06;101160.38;;;18.06;70.04
13974;BME280;7060;43.770;4.008;2023-05-07T07:44:36;101164.59;;;18.09;69.84
13974;BME280;7060;43.770;4.008;2023-05-07T07:47:08;101158.34;;;18.08;69.56
13974;BME280;7060;43.770;4.008;2023-05-07T07:49:38;101164.22;;;18.12;69.60
13974;BME280;7060;43.770;4.008;2023-05-07T07:52:08;101176.72;;;18.13;69.37
13974;BME280;7060;43.770;4.008;2023-05-07T07:54:38;101172.41;;;18.18;69.05
13974;BME280;7060;43.770;4.008;2023-05-07T07:57:07;101173.44;;;18.17;69.05
13974;BME280;7060;43.770;4.008;2023-05-07T07:59:37;101181.38;;;18.19;68.74
13974;BME280;7060;43.770;4.008;2023-05-07T08:02:07;101187.25;;;18.22;68.22
13974;BME280;7060;43.770;4.008;2023-05-07T08:04:37;101198.09;;;18.22;67.86
13974;BME280;7060;43.770;4.008;2023-05-07T08:07:07;101195.19;;;18.24;67.76
13974;BME280;7060;43.770;4.008;2023-05-07T08:09:39;101196.50;;;18.28;67.70
13974;BME280;7060;43.770;4.008;2023-05-07T08:12:09;101188.16;;;18.52;67.70
13974;BME280;7060;43.770;4.008;2023-05-07T08:14:40;101189.72;;;18.76;66.96
13974;BME280;7060;43.770;4.008;2023-05-07T08:17:11;101197.19;;;18.89;66.42
13974;BME280;7060;43.770;4.008;2023-05-07T08:19:43;101203.34;;;18.98;66.04
13974;BME280;7060;43.770;4.008;2023-05-07T08:22:13;101197.25;;;19.10;65.84
13974;BME280;7060;43.770;4.008;2023-05-07T08:24:43;101204.81;;;19.15;65.25
13974;BME280;7060;43.770;4.008;2023-05-07T08:27:12;101199.47;;;19.21;65.00
13974;BME280;7060;43.770;4.008;2023-05-07T08:29:43;101195.97;;;19.42;65.60
13974;BME280;7060;43.770;4.008;2023-05-07T08:32:16;101199.78;;;19.69;64.24
13974;BME280;7060;43.770;4.008;2023-05-07T08:34:45;101209.41;;;19.93;63.87
13974;BME280;7060;43.770;4.008;2023-05-07T08:37:14;101206.84;;;20.13;62.43
13974;BME280;7060;43.770;4.008;2023-05-07T08:39:43;101203.88;;;20.29;62.68
13974;BME280;7060;43.770;4.008;2023-05-07T08:42:17;101197.69;;;20.42;61.61
13974;BME280;7060;43.770;4.008;2023-05-07T08:44:49;101196.34;;;20.59;61.06
13974;BME280;7060;43.770;4.008;2023-05-07T08:47:22;101196.41;;;20.72;60.65
13974;BME280;7060;43.770;4.008;2023-05-07T08:50:00;101196.25;;;20.80;58.58
13974;BME280;7060;43.770;4.008;2023-05-07T08:52:29;101194.16;;;20.89;59.28
13974;BME280;7060;43.770;4.008;2023-05-07T08:54:57;101193.81;;;20.99;59.00
13974;BME280;7060;43.770;4.008;2023-05-07T08:57:28;101195.97;;;21.10;57.64
13974;BME280;7060;43.770;4.008;2023-05-07T08:59:58;101200.19;;;21.25;56.85
13974;BME280;7060;43.770;4.008;2023-05-07T09:02:27;101200.69;;;21.42;56.93
13974;BME280;7060;43.770;4.008;2023-05-07T09:04:56;101194.84;;;21.58;56.19
13974;BME280;7060;43.770;4.008;2023-05-07T09:07:25;101172.66;;;21.61;54.58
13974;BME280;7060;43.770;4.008;2023-05-07T09:09:54;101190.03;;;21.74;53.77
13974;BME280;7060;43.770;4.008;2023-05-07T09:12:23;101198.25;;;21.80;53.39
13974;BME280;7060;43.770;4.008;2023-05-07T09:14:51;101188.22;;;21.94;52.40
13974;BME280;7060;43.770;4.008;2023-05-07T09:17:21;101189.88;;;22.08;51.34
13974;BME280;7060;43.770;4.008;2023-05-07T09:19:50;101181.06;;;22.19;51.38
13974;BME280;7060;43.770;4.008;2023-05-07T09:22:20;101186.28;;;22.27;52.48
13974;BME280;7060;43.770;4.008;2023-05-07T09:24:56;101187.53;;;22.45;49.80
13974;BME280;7060;43.770;4.008;2023-05-07T09:27:26;101196.09;;;22.61;49.37
13974;BME280;7060;43.770;4.008;2023-05-07T09:29:56;101192.88;;;22.84;48.63
13974;BME280;7060;43.770;4.008;2023-05-07T09:32:26;101197.66;;;22.95;48.41
13974;BME280;7060;43.770;4.008;2023-05-07T09:34:57;101199.06;;;23.11;47.52
13974;BME280;7060;43.770;4.008;2023-05-07T09:37:27;101185.19;;;23.26;48.48
13974;BME280;7060;43.770;4.008;2023-05-07T09:39:55;101192.41;;;23.45;48.07
13974;BME280;7060;43.770;4.008;2023-05-07T09:42:27;101152.53;;;23.44;47.96
13974;BME280;7060;43.770;4.008;2023-05-07T09:44:59;101175.81;;;23.78;47.19
13974;BME280;7060;43.770;4.008;2023-05-07T09:47:37;101179.09;;;23.87;46.45
13974;BME280;7060;43.770;4.008;2023-05-07T09:50:08;101180.50;;;23.96;45.47
13974;BME280;7060;43.770;4.008;2023-05-07T09:52:40;101174.63;;;23.92;45.22
13974;BME280;7060;43.770;4.008;2023-05-07T09:55:10;101176.44;;;24.05;46.32
13974;BME280;7060;43.770;4.008;2023-05-07T09:57:42;101177.53;;;24.22;46.21
13974;BME280;7060;43.770;4.008;2023-05-07T10:00:12;101177.84;;;24.33;44.41
13974;BME280;7060;43.770;4.008;2023-05-07T10:02:51;101168.75;;;24.39;44.66
13974;BME280;7060;43.770;4.008;2023-05-07T10:05:28;101168.81;;;24.50;43.92
13974;BME280;7060;43.770;4.008;2023-05-07T10:07:59;101162.47;;;24.56;44.14
13974;BME280;7060;43.770;4.008;2023-05-07T10:10:33;101160.56;;;24.75;42.58
13974;BME280;7060;43.770;4.008;2023-05-07T10:13:05;101167.41;;;24.84;41.97
13974;BME280;7060;43.770;4.008;2023-05-07T10:15:42;101165.44;;;24.91;42.12
13974;BME280;7060;43.770;4.008;2023-05-07T10:18:13;101165.47;;;25.03;41.47
13974;BME280;7060;43.770;4.008;2023-05-07T10:20:47;101155.66;;;25.14;41.29
13974;BME280;7060;43.770;4.008;2023-05-07T10:23:21;101157.78;;;25.30;41.93
13974;BME280;7060;43.770;4.008;2023-05-07T10:25:56;101152.22;;;25.37;41.26
13974;BME280;7060;43.770;4.008;2023-05-07T10:28:31;101156.66;;;25.49;40.72
13974;BME280;7060;43.770;4.008;2023-05-07T10:31:15;101154.63;;;25.45;41.31
13974;BME280;7060;43.770;4.008;2023-05-07T10:33:51;101118.38;;;25.31;40.78
13974;BME280;7060;43.770;4.008;2023-05-07T10:36:22;101145.94;;;25.48;41.21
13974;BME280;7060;43.770;4.008;2023-05-07T10:38:52;101156.84;;;25.36;42.34
13974;BME280;7060;43.770;4.008;2023-05-07T10:41:21;101156.16;;;25.41;41.95
13974;BME280;7060;43.770;4.008;2023-05-07T10:43:51;101156.75;;;25.43;40.94
13974;BME280;7060;43.770;4.008;2023-05-07T10:46:24;101157.31;;;25.33;41.10
13974;BME280;7060;43.770;4.008;2023-05-07T10:49:08;101150.06;;;25.39;41.14
13974;BME280;7060;43.770;4.008;2023-05-07T10:52:15;101155.03;;;25.30;40.75
13974;BME280;7060;43.770;4.008;2023-05-07T10:55:19;101151.25;;;25.13;41.90
13974;BME280;7060;43.770;4.008;2023-05-07T10:58:24;101147.75;;;25.24;40.58
13974;BME280;7060;43.770;4.008;2023-05-07T11:01:14;101154.63;;;25.45;39.63
13974;BME280;7060;43.770;4.008;2023-05-07T11:04:14;101141.56;;;25.70;39.43
13974;BME280;7060;43.770;4.008;2023-05-07T11:07:23;101136.16;;;26.05;38.35
13974;BME280;7060;43.770;4.008;2023-05-07T11:10:00;101120.78;;;26.16;37.61
13974;BME280;7060;43.770;4.008;2023-05-07T11:12:54;101149.50;;;26.25;39.17
13974;BME280;7060;43.770;4.008;2023-05-07T11:15:40;101152.84;;;26.04;38.41
13974;BME280;7060;43.770;4.008;2023-05-07T11:18:46;101150.88;;;25.81;38.11
13974;BME280;7060;43.770;4.008;2023-05-07T11:21:34;101150.53;;;25.89;38.50
13974;BME280;7060;43.770;4.008;2023-05-07T11:24:23;101139.22;;;26.09;37.56
13974;BME280;7060;43.770;4.008;2023-05-07T11:27:03;101142.81;;;25.98;36.34
13974;BME280;7060;43.770;4.008;2023-05-07T11:29:32;101149.09;;;25.86;37.19
13974;BME280;7060;43.770;4.008;2023-05-07T11:32:12;101156.47;;;25.74;37.63
13974;BME280;7060;43.770;4.008;2023-05-07T11:34:51;101143.97;;;25.78;37.42
13974;BME280;7060;43.770;4.008;2023-05-07T11:37:22;101143.38;;;25.88;37.98
13974;BME280;7060;43.770;4.008;2023-05-07T11:40:04;101142.56;;;26.11;37.80
13974;BME280;7060;43.770;4.008;2023-05-07T11:42:34;101138.41;;;26.32;37.86
13974;BME280;7060;43.770;4.008;2023-05-07T11:45:05;101114.66;;;26.49;37.06
13974;BME280;7060;43.770;4.008;2023-05-07T11:47:34;101093.44;;;26.56;37.22
13974;BME280;7060;43.770;4.008;2023-05-07T11:50:04;101123.84;;;26.94;36.99
13974;BME280;7060;43.770;4.008;2023-05-07T11:52:35;101116.50;;;27.12;35.76
13974;BME280;7060;43.770;4.008;2023-05-07T11:55:06;101118.94;;;27.25;35.13
13974;BME280;7060;43.770;4.008;2023-05-07T11:57:35;101110.66;;;27.37;34.36
13974;BME280;7060;43.770;4.008;2023-05-07T12:00:04;101115.66;;;27.56;34.28
13974;BME280;7060;43.770;4.008;2023-05-07T12:02:40;101112.03;;;27.68;34.01
13974;BME280;7060;43.770;4.008;2023-05-07T12:05:09;101115.41;;;27.75;33.70
13974;BME280;7060;43.770;4.008;2023-05-07T12:07:38;101110.34;;;27.67;33.99
13974;BME280;7060;43.770;4.008;2023-05-07T12:10:11;101105.19;;;27.70;33.97
13974;BME280;7060;43.770;4.008;2023-05-07T12:12:40;101103.28;;;27.71;33.74
13974;BME280;7060;43.770;4.008;2023-05-07T12:15:10;101098.53;;;27.66;33.17
13974;BME280;7060;43.770;4.008;2023-05-07T12:17:39;101094.28;;;27.58;33.53
13974;BME280;7060;43.770;4.008;2023-05-07T12:20:08;101098.09;;;27.57;34.07
13974;BME280;7060;43.770;4.008;2023-05-07T12:22:38;101087.97;;;27.41;33.61
13974;BME280;7060;43.770;4.008;2023-05-07T12:25:08;101086.50;;;27.22;34.16
13974;BME280;7060;43.770;4.008;2023-05-07T12:27:39;101088.03;;;27.01;33.95
13974;BME280;7060;43.770;4.008;2023-05-07T12:30:10;101085.38;;;26.78;34.07
13974;BME280;7060;43.770;4.008;2023-05-07T12:32:38;101087.09;;;26.55;34.37
13974;BME280;7060;43.770;4.008;2023-05-07T12:35:08;101080.31;;;26.46;34.61
13974;BME280;7060;43.770;4.008;2023-05-07T12:37:36;101082.44;;;26.56;34.65
13974;BME280;7060;43.770;4.008;2023-05-07T12:40:06;101084.13;;;26.57;34.52
13974;BME280;7060;43.770;4.008;2023-05-07T12:42:37;101076.03;;;26.50;34.69
13974;BME280;7060;43.770;4.008;2023-05-07T12:45:10;101074.28;;;26.33;34.98
13974;BME280;7060;43.770;4.008;2023-05-07T12:47:39;101070.38;;;26.28;35.02
13974;BME280;7060;43.770;4.008;2023-05-07T12:50:08;101078.78;;;26.39;35.21
13974;BME280;7060;43.770;4.008;2023-05-07T12:52:36;101078.03;;;26.55;35.15
13974;BME280;7060;43.770;4.008;2023-05-07T12:55:05;101078.47;;;26.75;34.45
13974;BME280;7060;43.770;4.008;2023-05-07T12:57:39;101075.13;;;27.02;34.73
13974;BME280;7060;43.770;4.008;2023-05-07T13:00:10;101058.63;;;27.13;33.57
13974;BME280;7060;43.770;4.008;2023-05-07T13:02:40;101064.25;;;27.35;34.00
13974;BME280;7060;43.770;4.008;2023-05-07T13:05:11;101060.13;;;27.21;33.19
13974;BME280;7060;43.770;4.008;2023-05-07T13:07:40;101069.00;;;27.11;32.72
13974;BME280;7060;43.770;4.008;2023-05-07T13:10:10;101067.72;;;26.85;34.05
13974;BME280;7060;43.770;4.008;2023-05-07T13:12:39;101062.31;;;26.62;34.50
13974;BME280;7060;43.770;4.008;2023-05-07T13:15:09;101062.22;;;26.45;34.94
13974;BME280;7060;43.770;4.008;2023-05-07T13:17:38;101053.38;;;26.43;34.63
13974;BME280;7060;43.770;4.008;2023-05-07T13:20:09;101053.13;;;26.56;34.07
13974;BME280;7060;43.770;4.008;2023-05-07T13:22:38;101047.09;;;26.83;34.26